Time;durP1;ratioP1;P1;durP2;ratioP2;P2;SDS_P1;SDS_P2;PMS_P1;PMS_P2;Temp;Humidity;BMP_temperature;BMP_pressure;BME280_temperature;BME280_humidity;BME280_pressure;Samples;Min_cycle;Max_cycle;Signal;HPM_P1;HPM_P2
2023/03/01 00:01:21;;;;;;;12.67;11.40;;;;;;;1.07;57.66;102978.50;5033263;28;20503;-57
2023/03/01 00:03:46;;;;;;;13.03;11.60;;;;;;;1.08;58.11;102973.25;5034368;28;20094;-57
2023/03/01 00:06:12;;;;;;;12.60;11.40;;;;;;;1.16;58.11;102980.34;5032850;28;20540;-57
2023/03/01 00:08:38;;;;;;;12.53;11.30;;;;;;;1.09;58.32;102971.56;5033119;28;20032;-56
2023/03/01 00:11:11;;;;;;;13.53;12.13;;;;;;;1.03;57.76;102976.69;5031886;28;20010;-56
2023/03/01 00:13:37;;;;;;;13.20;11.90;;;;;;;0.98;58.54;102986.28;5034654;28;20473;-57
2023/03/01 00:16:04;;;;;;;12.73;11.33;;;;;;;0.98;58.09;102979.28;5033129;28;20021;-57
2023/03/01 00:18:29;;;;;;;12.47;11.27;;;;;;;0.90;58.76;102976.56;5034118;28;20104;-58
2023/03/01 00:20:56;;;;;;;13.80;12.40;;;;;;;0.92;58.14;102976.59;5034321;28;20104;-57
2023/03/01 00:23:23;;;;;;;13.32;12.07;;;;;;;0.72;58.42;102965.00;5034104;28;20028;-57
2023/03/01 00:25:48;;;;;;;14.02;12.15;;;;;;;0.74;59.39;102976.38;5032624;28;20032;-57
2023/03/01 00:28:17;;;;;;;13.10;11.90;;;;;;;0.80;58.87;102971.22;5033726;28;20021;-57
2023/03/01 00:30:43;;;;;;;14.47;11.97;;;;;;;0.81;59.07;102968.59;5035648;28;20017;-57
2023/03/01 00:33:08;;;;;;;12.40;11.20;;;;;;;0.82;59.29;102969.47;5031183;28;20108;-58
2023/03/01 00:35:35;;;;;;;13.70;11.57;;;;;;;0.86;59.11;102968.66;5033229;28;20081;-57
2023/03/01 00:38:00;;;;;;;13.37;11.97;;;;;;;0.76;59.05;102974.66;5033876;28;20029;-57
2023/03/01 00:40:30;;;;;;;13.03;11.73;;;;;;;0.80;59.46;102968.59;5031176;28;20036;-57
2023/03/01 00:42:56;;;;;;;14.77;12.30;;;;;;;0.73;58.71;102974.59;5033960;28;20786;-57
2023/03/01 00:45:22;;;;;;;13.88;12.48;;;;;;;0.69;58.93;102984.16;5032492;28;20030;-57
2023/03/01 00:47:48;;;;;;;14.85;12.75;;;;;;;0.66;59.64;102976.28;5032602;28;20022;-57
2023/03/01 00:50:14;;;;;;;14.97;13.47;;;;;;;0.62;59.63;102972.75;5033276;28;20076;-57
2023/03/01 00:52:39;;;;;;;14.40;12.90;;;;;;;0.67;59.30;102968.44;5032455;28;20048;-57
2023/03/01 00:55:05;;;;;;;13.67;12.37;;;;;;;0.64;59.40;102960.53;5033416;28;20032;-57
2023/03/01 00:57:31;;;;;;;13.37;11.97;;;;;;;0.73;58.97;102951.03;5033869;28;20103;-57
2023/03/01 00:59:56;;;;;;;14.83;13.33;;;;;;;0.65;58.48;102961.44;5032536;28;20069;-57
2023/03/01 01:02:22;;;;;;;15.53;13.00;;;;;;;0.66;59.58;102948.34;5033577;28;20036;-57
2023/03/01 01:04:47;;;;;;;15.67;12.63;;;;;;;0.78;59.48;102958.09;5033183;28;20053;-57
2023/03/01 01:07:14;;;;;;;14.57;13.17;;;;;;;0.75;59.75;102947.59;5032057;28;20075;-57
2023/03/01 01:09:39;;;;;;;15.20;12.63;;;;;;;0.71;59.57;102940.56;5032593;28;20654;-57
2023/03/01 01:12:06;;;;;;;15.03;12.47;;;;;;;0.70;59.87;102943.16;5033699;28;20033;-57
2023/03/01 01:14:31;;;;;;;17.27;13.77;;;;;;;0.60;59.41;102945.66;5033074;28;20427;-57
2023/03/01 01:16:59;;;;;;;14.33;12.93;;;;;;;0.65;59.61;102946.59;5032146;28;20029;-57
2023/03/01 01:19:25;;;;;;;14.60;12.80;;;;;;;0.53;59.39;102938.59;5033265;28;20030;-57
2023/03/01 01:21:51;;;;;;;13.27;11.77;;;;;;;0.55;59.87;102944.72;5032864;28;20026;-57
2023/03/01 01:24:17;;;;;;;13.83;12.17;;;;;;;0.59;59.78;102943.91;5031939;28;20029;-57
2023/03/01 01:26:43;;;;;;;13.40;12.00;;;;;;;0.45;60.13;102938.50;5032741;28;20037;-57
2023/03/01 01:29:09;;;;;;;13.63;12.33;;;;;;;0.46;60.64;102923.66;5032969;28;20108;-56
2023/03/01 01:31:36;;;;;;;14.03;12.83;;;;;;;0.47;60.67;102925.41;5031132;28;20045;-57
2023/03/01 01:34:03;;;;;;;12.83;11.47;;;;;;;0.44;60.33;102899.19;5032331;28;20049;-56
2023/03/01 01:36:29;;;;;;;13.80;12.43;;;;;;;0.42;60.26;102907.06;5032544;28;20083;-56
2023/03/01 01:38:54;;;;;;;13.77;12.37;;;;;;;0.48;60.17;102905.38;5033160;28;20029;-56
2023/03/01 01:41:21;;;;;;;13.47;12.27;;;;;;;0.49;60.03;102902.75;5031920;28;20037;-58
2023/03/01 01:43:49;;;;;;;14.03;12.63;;;;;;;0.34;60.59;102900.84;5031611;28;20029;-56
2023/03/01 01:46:32;;;;;;;13.63;12.37;;;;;;;0.40;60.39;102894.81;5032125;28;20038;-57
2023/03/01 01:49:17;;;;;;;12.87;10.97;;;;;;;0.42;60.43;102893.97;5032942;28;20029;-57
2023/03/01 01:51:46;;;;;;;12.60;11.37;;;;;;;0.16;60.69;102862.25;5032447;28;20021;-57
2023/03/01 01:54:23;;;;;;;15.87;12.23;;;;;;;0.20;61.17;102882.34;5031377;28;20025;-57
2023/03/01 01:56:55;;;;;;;13.87;11.90;;;;;;;0.29;61.42;102896.41;5031115;28;20338;-57
2023/03/01 01:59:24;;;;;;;13.23;11.93;;;;;;;0.21;60.67;102894.59;5032191;28;20084;-57
2023/03/01 02:01:51;;;;;;;13.40;11.70;;;;;;;0.13;60.99;102885.75;5031199;28;20049;-56
2023/03/01 02:04:17;;;;;;;13.87;12.57;;;;;;;0.17;62.10;102890.16;5032353;28;20032;-57
2023/03/01 02:06:54;;;;;;;12.70;11.60;;;;;;;0.17;61.98;102890.16;5032312;28;20025;-57
2023/03/01 02:09:21;;;;;;;15.00;12.17;;;;;;;0.11;62.35;102881.34;5032075;28;20100;-57
2023/03/01 02:11:47;;;;;;;14.50;13.03;;;;;;;0.19;61.14;102884.94;5032575;28;20045;-57
2023/03/01 02:14:15;;;;;;;14.60;13.00;;;;;;;0.07;62.12;102887.41;5033075;28;20056;-56
2023/03/01 02:16:42;;;;;;;13.90;10.77;;;;;;;0.08;60.80;102869.09;5031423;28;20037;-57
2023/03/01 02:19:20;;;;;;;13.90;12.57;;;;;;;0.12;62.21;102873.53;5032456;28;20025;-57
2023/03/01 02:21:59;;;;;;;13.50;11.73;;;;;;;0.14;62.26;102876.16;5030811;28;20029;-57
2023/03/01 02:25:00;;;;;;;14.68;11.85;;;;;;;0.15;60.90;102863.09;5045894;28;20025;-57
2023/03/01 02:27:36;;;;;;;16.07;11.40;;;;;;;0.10;61.55;102851.69;5000353;28;20037;-57
2023/03/01 02:30:02;;;;;;;13.80;12.23;;;;;;;-0.01;61.38;102851.56;5028158;28;20025;-57
2023/03/01 02:32:28;;;;;;;13.23;11.83;;;;;;;0.05;61.67;102869.06;5031695;28;20017;-58
2023/03/01 02:34:56;;;;;;;13.20;11.90;;;;;;;0.07;61.42;102867.34;5030259;28;20129;-57
2023/03/01 02:37:25;;;;;;;13.53;12.23;;;;;;;-0.01;62.17;102875.09;5031675;28;20099;-57
2023/03/01 02:39:59;;;;;;;13.83;12.43;;;;;;;-0.10;62.63;102872.34;5030919;28;20076;-57
2023/03/01 02:42:33;;;;;;;13.10;11.80;;;;;;;-0.18;62.63;102873.97;5031398;28;20033;-57
2023/03/01 02:44:59;;;;;;;14.20;12.80;;;;;;;-0.30;62.95;102874.69;5031403;28;20029;-58
2023/03/01 02:47:24;;;;;;;15.50;11.23;;;;;;;-0.24;63.06;102872.19;5030593;28;20045;-57
2023/03/01 02:49:49;;;;;;;13.30;11.97;;;;;;;-0.27;62.38;102874.72;5031212;28;20074;-57
2023/03/01 02:52:18;;;;;;;12.00;10.90;;;;;;;-0.19;62.83;102879.19;5030632;28;20021;-57
2023/03/01 02:54:52;;;;;;;12.50;11.20;;;;;;;-0.21;62.85;102875.66;5031261;28;20025;-57
2023/03/01 02:57:19;;;;;;;13.20;11.90;;;;;;;-0.27;62.71;102877.34;5031432;28;20040;-56
2023/03/01 02:59:44;;;;;;;12.30;11.03;;;;;;;-0.19;62.44;102872.22;5030584;28;20031;-57
2023/03/01 03:02:39;;;;;;;15.03;11.63;;;;;;;-0.15;62.92;102881.88;5030211;28;20022;-57
2023/03/01 03:05:17;;;;;;;12.57;11.17;;;;;;;-0.30;62.69;102874.69;5031298;28;20033;-57
2023/03/01 03:07:46;;;;;;;15.13;11.30;;;;;;;-0.40;63.73;102867.56;5031406;28;20025;-57
2023/03/01 03:10:23;;;;;;;12.83;11.03;;;;;;;-0.37;63.24;102866.75;5030883;28;20033;-57
2023/03/01 03:12:54;;;;;;;13.03;11.63;;;;;;;-0.44;64.23;102862.25;5042766;28;20079;-57
2023/03/01 03:15:20;;;;;;;16.60;11.83;;;;;;;-0.51;64.24;102871.75;5048890;28;20036;-56
2023/03/01 03:17:46;;;;;;;15.73;11.37;;;;;;;-0.51;64.24;102875.22;5047533;28;20029;-57
2023/03/01 03:20:18;;;;;;;12.77;11.47;;;;;;;-0.48;64.30;102877.03;5047609;28;20480;-57
2023/03/01 03:22:46;;;;;;;12.77;11.47;;;;;;;-0.53;64.37;102870.84;5050209;28;20057;-57
2023/03/01 03:25:12;;;;;;;13.03;11.67;;;;;;;-0.54;64.66;102877.81;5049397;28;20027;-57
2023/03/01 03:27:38;;;;;;;13.13;11.33;;;;;;;-0.61;64.65;102870.72;5051905;28;20100;-57
2023/03/01 03:30:08;;;;;;;15.17;12.10;;;;;;;-0.57;64.67;102871.66;5035693;28;20108;-57
2023/03/01 03:32:35;;;;;;;14.80;11.43;;;;;;;-0.59;65.21;102873.34;5035290;28;20021;-57
2023/03/01 03:35:02;;;;;;;12.83;11.57;;;;;;;-0.66;64.69;102864.56;5035964;28;20538;-57
2023/03/01 03:40:15;;;;;;;15.10;10.80;;;;;;;-0.73;65.81;102871.41;5045802;28;20399;-57
2023/03/01 03:42:41;;;;;;;13.20;11.80;;;;;;;-0.76;66.65;102865.28;5054412;28;20048;-57
2023/03/01 03:45:06;;;;;;;13.87;11.83;;;;;;;-0.80;66.36;102864.31;5052814;28;20087;-57
2023/03/01 03:47:32;;;;;;;13.47;11.43;;;;;;;-0.78;65.78;102861.75;5053902;28;20035;-57
2023/03/01 03:49:57;;;;;;;13.93;11.73;;;;;;;-0.84;66.38;102856.41;5044442;28;20024;-57
2023/03/01 03:52:23;;;;;;;12.70;11.50;;;;;;;-0.82;66.20;102854.72;5052561;28;20021;-56
2023/03/01 03:54:48;;;;;;;14.83;11.67;;;;;;;-0.82;66.27;102860.81;5034430;28;20100;-57
2023/03/01 03:57:13;;;;;;;13.00;11.60;;;;;;;-0.85;66.36;102863.38;5034626;28;20551;-56
2023/03/01 03:59:39;;;;;;;12.00;10.77;;;;;;;-0.87;67.47;102864.22;5042821;28;20029;-57
2023/03/01 04:02:05;;;;;;;12.47;10.60;;;;;;;-0.90;67.36;102851.97;5052428;28;20532;-57
2023/03/01 04:04:30;;;;;;;12.30;11.00;;;;;;;-0.89;67.12;102835.44;5051189;28;20135;-57
2023/03/01 04:06:56;;;;;;;13.63;10.60;;;;;;;-0.86;67.40;102851.16;5049052;28;20520;-57
2023/03/01 04:09:21;;;;;;;12.17;10.87;;;;;;;-0.84;67.66;102852.06;5038535;28;20170;-57
2023/03/01 04:11:49;;;;;;;12.57;11.10;;;;;;;-0.91;67.63;102847.63;5048450;28;20468;-57
2023/03/01 04:14:14;;;;;;;11.57;10.37;;;;;;;-0.83;67.07;102834.66;5041021;28;20057;-57
2023/03/01 04:16:39;;;;;;;13.87;10.77;;;;;;;-0.78;67.36;102833.00;5050025;28;20555;-56
2023/03/01 04:19:06;;;;;;;11.50;9.90;;;;;;;-0.78;66.72;102836.50;5052232;28;20086;-57
2023/03/01 04:21:31;;;;;;;11.20;10.07;;;;;;;-0.82;66.83;102834.69;5051741;28;20029;-57
2023/03/01 04:23:57;;;;;;;12.77;11.07;;;;;;;-0.89;66.64;102829.34;5046148;28;20027;-57
2023/03/01 04:26:22;;;;;;;12.13;10.90;;;;;;;-0.78;66.51;102838.22;5050995;28;20020;-56
2023/03/01 04:28:49;;;;;;;13.03;10.63;;;;;;;-0.78;67.04;102833.00;5052897;28;20059;-57
2023/03/01 04:31:18;;;;;;;11.17;10.10;;;;;;;-0.74;67.02;102829.56;5053982;28;20048;-57
2023/03/01 04:33:54;;;;;;;10.77;9.67;;;;;;;-0.77;67.28;102827.78;5032401;28;20366;-56
2023/03/01 04:36:26;;;;;;;11.80;10.47;;;;;;;-0.82;66.77;102829.47;5022012;28;20026;-57
2023/03/01 04:38:52;;;;;;;10.53;9.53;;;;;;;-0.82;66.58;102826.88;5033070;28;20029;-57
2023/03/01 04:41:20;;;;;;;11.43;10.30;;;;;;;-0.85;66.70;102829.44;5032902;28;20025;-57
2023/03/01 04:43:46;;;;;;;11.73;10.27;;;;;;;-0.78;66.35;102828.66;5033985;28;20484;-57
2023/03/01 04:46:14;;;;;;;11.93;9.33;;;;;;;-0.76;67.55;102828.69;5033747;28;20033;-57
2023/03/01 04:48:41;;;;;;;11.03;10.03;;;;;;;-0.78;67.43;102810.38;5033877;28;20063;-57
2023/03/01 04:51:07;;;;;;;12.20;10.47;;;;;;;-0.81;67.22;102817.28;5033440;28;20032;-57
2023/03/01 04:53:36;;;;;;;11.07;10.07;;;;;;;-0.87;67.44;102807.63;5033665;28;20108;-57
2023/03/01 04:56:02;;;;;;;11.77;10.40;;;;;;;-0.89;66.59;102803.22;5033150;28;20026;-56
2023/03/01 04:58:31;;;;;;;11.37;10.13;;;;;;;-0.92;67.12;102799.69;5032573;28;20014;-57
2023/03/01 05:00:57;;;;;;;11.43;10.33;;;;;;;-0.94;66.84;102804.03;5033844;28;20034;-57
2023/03/01 05:03:25;;;;;;;11.00;9.90;;;;;;;-0.90;66.07;102802.34;5032122;28;20499;-57
2023/03/01 05:05:52;;;;;;;12.93;10.50;;;;;;;-0.81;66.73;102809.44;5033385;28;20025;-56
2023/03/01 05:08:20;;;;;;;11.67;10.37;;;;;;;-0.83;66.59;102809.41;5033450;28;20025;-57
2023/03/01 05:10:52;;;;;;;10.57;9.50;;;;;;;-0.89;67.51;102811.06;5031791;28;20021;-57
2023/03/01 05:13:21;;;;;;;12.33;10.63;;;;;;;-0.94;67.35;102813.63;5032356;28;20111;-57
2023/03/01 05:15:58;;;;;;;11.80;10.57;;;;;;;-0.96;67.16;102810.97;5031735;28;20143;-56
2023/03/01 05:18:28;;;;;;;11.20;10.00;;;;;;;-1.08;68.66;102821.22;5033651;28;20036;-57
2023/03/01 05:20:57;;;;;;;12.93;10.63;;;;;;;-1.08;67.87;102809.88;5032123;28;20028;-58
2023/03/01 05:23:23;;;;;;;14.10;10.23;;;;;;;-1.08;68.30;102807.28;5033173;28;20104;-56
2023/03/01 05:25:50;;;;;;;13.93;10.70;;;;;;;-1.06;67.78;102801.22;5033364;28;20215;-57
2023/03/01 05:28:15;;;;;;;15.10;10.40;;;;;;;-1.11;68.06;102791.56;5032952;28;20029;-56
2023/03/01 05:30:41;;;;;;;11.60;10.43;;;;;;;-1.11;67.36;102778.50;5032900;28;20024;-57
2023/03/01 05:33:12;;;;;;;11.87;10.57;;;;;;;-1.15;67.16;102769.72;5035310;28;20096;-57
2023/03/01 05:35:42;;;;;;;11.70;10.20;;;;;;;-1.11;68.37;102782.00;5039562;28;20062;-56
2023/03/01 05:38:08;;;;;;;13.70;10.53;;;;;;;-1.09;68.01;102777.66;5032272;28;20025;-57
2023/03/01 05:40:34;;;;;;;16.07;11.30;;;;;;;-1.12;67.87;102775.00;5032317;28;20037;-57
2023/03/01 05:43:00;;;;;;;11.80;10.67;;;;;;;-1.17;67.50;102766.22;5032941;28;20037;-57
2023/03/01 05:45:27;;;;;;;12.23;11.00;;;;;;;-1.22;67.75;102755.69;5032783;28;20029;-57
2023/03/01 05:47:54;;;;;;;13.90;10.57;;;;;;;-1.23;67.59;102763.53;5032449;28;20033;-57
2023/03/01 05:50:26;;;;;;;12.60;11.30;;;;;;;-1.20;67.68;102766.19;5031561;28;20500;-57
2023/03/01 05:52:57;;;;;;;12.33;10.23;;;;;;;-1.20;67.87;102766.19;5032746;28;20511;-57
2023/03/01 05:55:23;;;;;;;11.33;10.27;;;;;;;-1.16;67.51;102768.84;5032189;28;20037;-57
2023/03/01 05:57:49;;;;;;;11.67;10.43;;;;;;;-1.22;68.07;102768.75;5032831;28;20053;-57
2023/03/01 06:00:19;;;;;;;13.33;11.07;;;;;;;-1.25;67.91;102765.22;5032376;28;20017;-57
2023/03/01 06:02:45;;;;;;;13.20;10.95;;;;;;;-1.24;67.83;102761.75;5030308;28;20484;-56
2023/03/01 06:05:12;;;;;;;12.83;10.73;;;;;;;-1.30;67.34;102754.69;5032373;28;20140;-57
2023/03/01 06:07:38;;;;;;;11.97;10.77;;;;;;;-1.34;68.24;102759.84;5029713;28;20029;-57
2023/03/01 06:10:05;;;;;;;13.07;11.37;;;;;;;-1.31;68.32;102772.94;5030721;28;20028;-57
2023/03/01 06:12:36;;;;;;;13.40;11.33;;;;;;;-1.33;68.30;102766.81;5032163;28;20025;-58
2023/03/01 06:15:03;;;;;;;12.33;10.57;;;;;;;-1.27;67.65;102767.78;5032196;28;20033;-57
2023/03/01 06:17:29;;;;;;;11.83;10.63;;;;;;;-1.31;68.29;102767.72;5014619;28;20112;-57
2023/03/01 06:19:57;;;;;;;17.63;11.73;;;;;;;-1.34;68.21;102765.94;5032194;28;20534;-57
2023/03/01 06:22:26;;;;;;;12.60;11.03;;;;;;;-1.43;68.03;102757.94;5012182;28;20030;-57
2023/03/01 06:24:54;;;;;;;11.87;10.53;;;;;;;-1.39;68.66;102765.84;5030433;28;20052;-58
2023/03/01 06:27:22;;;;;;;13.50;11.70;;;;;;;-1.46;68.69;102763.13;5031380;28;20029;-57
2023/03/01 06:29:48;;;;;;;15.53;11.53;;;;;;;-1.48;69.15;102768.31;5031543;28;20025;-57
2023/03/01 06:32:14;;;;;;;12.93;11.37;;;;;;;-1.54;69.25;102762.09;5031926;28;20024;-57
2023/03/01 06:34:39;;;;;;;13.47;11.57;;;;;;;-1.52;70.03;102771.72;5031454;28;20404;-57
2023/03/01 06:37:05;;;;;;;14.47;11.30;;;;;;;-1.55;69.50;102782.09;5030187;28;20047;-57
2023/03/01 06:39:32;;;;;;;13.07;11.63;;;;;;;-1.52;69.55;102774.31;5030833;28;20387;-57
2023/03/01 06:41:58;;;;;;;16.70;12.20;;;;;;;-1.52;69.75;102776.94;5030498;28;20427;-57
2023/03/01 06:44:23;;;;;;;16.00;12.77;;;;;;;-1.53;69.89;102771.69;5030063;28;20025;-57
2023/03/01 06:46:48;;;;;;;13.13;11.80;;;;;;;-1.54;69.61;102773.41;5031578;28;20083;-57
2023/03/01 06:49:15;;;;;;;14.03;12.30;;;;;;;-1.55;69.72;102770.78;5031630;28;20033;-57
2023/03/01 06:51:41;;;;;;;16.17;12.10;;;;;;;-1.53;70.73;102780.41;5027469;28;20083;-57
2023/03/01 06:54:07;;;;;;;15.20;11.83;;;;;;;-1.52;70.55;102761.28;5030411;28;20472;-57
2023/03/01 06:56:32;;;;;;;12.73;11.30;;;;;;;-1.42;70.02;102776.22;5030920;28;20021;-57
2023/03/01 06:58:58;;;;;;;16.97;13.20;;;;;;;-1.45;70.31;102775.31;5029179;28;20180;-57
2023/03/01 07:01:24;;;;;;;15.57;12.67;;;;;;;-1.49;70.20;102774.38;5049676;28;20033;-57
2023/03/01 07:03:51;;;;;;;14.13;12.30;;;;;;;-1.41;71.07;102769.31;5051518;28;20036;-57
2023/03/01 07:06:19;;;;;;;17.43;12.67;;;;;;;-1.37;70.75;102763.28;5049766;28;20528;-57
2023/03/01 07:08:47;;;;;;;13.13;11.83;;;;;;;-1.26;70.82;102764.34;5033211;28;20033;-57
2023/03/01 07:11:15;;;;;;;14.60;12.77;;;;;;;-1.31;70.70;102763.38;5029801;28;20370;-58
2023/03/01 07:13:41;;;;;;;13.80;12.27;;;;;;;-1.24;70.23;102766.97;5028969;28;20022;-57
2023/03/01 07:16:07;;;;;;;12.73;11.53;;;;;;;-1.25;70.54;102763.47;5048605;28;20028;-58
2023/03/01 07:18:32;;;;;;;20.73;13.37;;;;;;;-1.10;70.71;102777.66;5037201;28;20373;-58
2023/03/01 07:20:57;;;;;;;14.70;12.20;;;;;;;-1.10;71.19;102772.41;5029712;28;20030;-58
2023/03/01 07:23:23;;;;;;;13.30;11.90;;;;;;;-1.08;70.26;102761.16;5028958;28;20036;-58
2023/03/01 07:25:54;;;;;;;17.27;11.87;;;;;;;-0.86;70.25;102785.84;5028629;28;20040;-58
2023/03/01 07:28:22;;;;;;;17.57;12.90;;;;;;;-0.73;69.32;102785.19;5029767;28;20021;-58
2023/03/01 07:30:47;;;;;;;14.13;12.63;;;;;;;-0.57;69.14;102785.41;5029944;28;20026;-58
2023/03/01 07:33:12;;;;;;;15.73;12.80;;;;;;;-0.43;68.40;102791.72;5030871;28;20031;-58
2023/03/01 07:35:40;;;;;;;14.97;13.10;;;;;;;-0.40;67.56;102785.66;5036296;28;20041;-58
2023/03/01 07:38:05;;;;;;;15.50;11.97;;;;;;;-0.30;68.01;102782.31;5030161;28;20021;-58
2023/03/01 07:40:33;;;;;;;15.17;13.20;;;;;;;-0.20;67.54;102781.59;5042813;28;20028;-58
2023/03/01 07:42:59;;;;;;;14.83;12.73;;;;;;;-0.17;68.07;102781.63;5038965;28;20048;-58
2023/03/01 07:45:25;;;;;;;16.50;12.27;;;;;;;-0.04;67.21;102777.41;5037346;28;20479;-58
2023/03/01 07:47:51;;;;;;;14.63;12.30;;;;;;;0.09;66.72;102781.03;5050771;28;20821;-57
2023/03/01 07:50:17;;;;;;;14.77;12.90;;;;;;;0.12;66.74;102784.59;5050907;28;20060;-57
2023/03/01 07:52:45;;;;;;;13.53;12.23;;;;;;;0.22;66.45;102772.47;5048681;28;20044;-58
2023/03/01 07:55:11;;;;;;;15.33;13.33;;;;;;;0.34;65.77;102776.97;5044892;28;20032;-58
2023/03/01 07:57:37;;;;;;;16.37;12.87;;;;;;;0.42;66.10;102780.53;5049370;28;20177;-58
2023/03/01 08:00:03;;;;;;;17.70;13.50;;;;;;;0.50;65.80;102775.38;5048302;28;20383;-57
2023/03/01 08:02:28;;;;;;;16.10;14.47;;;;;;;0.54;66.05;102761.47;5045813;28;20040;-59
2023/03/01 08:04:54;;;;;;;18.77;13.93;;;;;;;0.71;65.33;102778.22;5029946;28;20025;-57
2023/03/01 08:07:19;;;;;;;16.87;14.23;;;;;;;0.74;64.82;102785.22;5028439;28;20033;-57
2023/03/01 08:09:47;;;;;;;16.83;13.80;;;;;;;0.82;64.89;102781.78;5047223;28;20070;-58
2023/03/01 08:12:12;;;;;;;15.13;12.63;;;;;;;0.90;64.49;102781.84;5033139;28;20447;-58
2023/03/01 08:14:37;;;;;;;15.60;13.90;;;;;;;1.03;64.35;102783.72;5032874;28;20087;-58
2023/03/01 08:17:03;;;;;;;16.23;13.50;;;;;;;1.15;64.16;102782.94;5033276;28;20032;-58
2023/03/01 08:19:29;;;;;;;15.47;11.77;;;;;;;1.18;63.10;102782.06;5033088;28;20083;-58
2023/03/01 08:21:55;;;;;;;16.20;13.43;;;;;;;1.25;63.49;102779.50;5034529;28;20108;-58
2023/03/01 08:24:20;;;;;;;14.90;13.32;;;;;;;1.30;64.28;102787.41;5032613;28;20052;-58
2023/03/01 08:26:45;;;;;;;13.95;11.95;;;;;;;1.31;62.64;102776.03;5034059;28;20354;-58
2023/03/01 08:29:11;;;;;;;15.30;13.80;;;;;;;1.43;62.48;102768.25;5033774;28;20027;-58
2023/03/01 08:31:39;;;;;;;14.80;13.38;;;;;;;1.62;62.09;102768.34;5033638;28;20553;-58
2023/03/01 08:34:09;;;;;;;14.13;12.73;;;;;;;1.80;61.84;102768.44;5033926;28;20049;-57
2023/03/01 08:36:40;;;;;;;15.55;12.77;;;;;;;1.86;61.53;102767.59;5034052;28;20036;-58
2023/03/01 08:39:07;;;;;;;14.35;13.00;;;;;;;1.99;60.87;102766.75;5032265;28;20060;-58
2023/03/01 08:41:32;;;;;;;15.90;13.07;;;;;;;2.11;60.47;102771.19;5033434;28;20021;-58
2023/03/01 08:43:58;;;;;;;15.40;13.82;;;;;;;2.24;60.64;102767.72;5033015;28;20365;-58
2023/03/01 08:46:36;;;;;;;15.20;13.52;;;;;;;2.37;61.24;102763.38;5032396;28;20025;-58
2023/03/01 08:49:08;;;;;;;16.10;13.73;;;;;;;2.49;59.80;102752.88;5033700;28;20040;-57
2023/03/01 08:51:36;;;;;;;17.08;13.43;;;;;;;2.57;59.67;102745.91;5033752;28;20014;-58
2023/03/01 08:54:06;;;;;;;15.05;13.57;;;;;;;2.62;59.79;102752.03;5032910;28;20112;-58
2023/03/01 08:56:32;;;;;;;;;;;;;;;2.78;59.73;102752.03;5032568;28;20460;-58
2023/03/01 08:58:58;;;;;;;14.82;13.32;;;;;;;2.83;58.94;102759.03;5033773;28;19909;-58
2023/03/01 09:01:23;;;;;;;14.90;13.50;;;;;;;2.92;57.53;102750.28;5032179;28;20495;-58
2023/03/01 09:03:48;;;;;;;15.55;13.95;;;;;;;2.88;57.61;102733.66;5032657;28;20031;-58
2023/03/01 09:06:15;;;;;;;15.50;13.82;;;;;;;3.03;58.23;102748.53;5032485;28;20021;-58
2023/03/01 09:08:43;;;;;;;15.07;13.68;;;;;;;3.07;56.81;102744.13;5033725;28;20108;-58
2023/03/01 09:11:10;;;;;;;14.65;13.15;;;;;;;3.06;56.20;102731.84;5033067;28;20021;-58
2023/03/01 09:13:36;;;;;;;16.83;13.57;;;;;;;3.32;56.40;102739.69;5032430;28;20025;-58
2023/03/01 09:16:04;;;;;;;16.00;14.52;;;;;;;3.49;56.19;102737.03;5033141;28;20040;-58
2023/03/01 09:18:30;;;;;;;14.32;12.93;;;;;;;3.63;54.69;102722.94;5031895;28;20025;-58
2023/03/01 09:21:12;;;;;;;14.75;13.23;;;;;;;3.71;53.99;102707.13;5033653;28;20469;-57
2023/03/01 09:23:41;;;;;;;16.77;13.13;;;;;;;3.94;53.57;102724.56;5033128;28;20025;-58
2023/03/01 09:26:08;;;;;;;13.82;12.48;;;;;;;4.06;53.31;102717.47;5031531;28;20079;-58
2023/03/01 09:28:35;;;;;;;16.30;14.82;;;;;;;4.31;52.48;102728.72;5032952;28;20503;-58
2023/03/01 09:31:02;;;;;;;15.50;14.15;;;;;;;4.38;51.29;102726.03;5032851;28;20036;-57
2023/03/01 09:33:28;;;;;;;14.70;13.45;;;;;;;4.45;51.41;102720.72;5033035;28;20550;-56
2023/03/01 09:36:03;;;;;;;14.27;12.98;;;;;;;4.69;51.50;102714.38;5032793;28;20049;-58
2023/03/01 09:38:31;;;;;;;16.20;14.35;;;;;;;4.93;51.33;102718.56;5031520;28;20033;-58
2023/03/01 09:40:57;;;;;;;15.25;13.82;;;;;;;4.92;49.55;102713.31;5032392;28;20034;-58
2023/03/01 09:43:25;;;;;;;14.32;13.02;;;;;;;4.95;49.09;102715.94;5031685;28;20032;-58
2023/03/01 09:45:55;;;;;;;14.60;13.18;;;;;;;4.97;49.07;102716.75;5031437;28;20030;-58
2023/03/01 09:48:25;;;;;;;14.35;12.82;;;;;;;5.11;49.32;102706.09;5031183;28;20035;-58
2023/03/01 09:50:52;;;;;;;14.02;12.75;;;;;;;5.15;48.17;102703.41;5031308;28;20361;-58
2023/03/01 09:53:21;;;;;;;13.98;12.25;;;;;;;5.18;49.35;102695.47;5032759;28;20018;-58
2023/03/01 09:56:07;;;;;;;13.32;11.93;;;;;;;5.27;48.86;102698.91;5030737;28;20473;-58
2023/03/01 09:58:57;;;;;;;14.32;12.90;;;;;;;5.38;47.65;102692.63;5032268;28;20076;-58
2023/03/01 10:01:52;;;;;;;14.57;13.13;;;;;;;5.45;48.44;102689.00;5032523;28;20029;-58
2023/03/01 10:04:28;;;;;;;14.73;13.20;;;;;;;5.57;46.39;102685.34;5032559;28;20025;-58
2023/03/01 10:06:56;;;;;;;14.13;12.77;;;;;;;5.62;45.94;102682.66;5031481;28;20032;-58
2023/03/01 10:09:22;;;;;;;13.93;12.52;;;;;;;5.68;45.14;102683.44;5031750;28;20037;-58
2023/03/01 10:11:56;;;;;;;14.30;12.82;;;;;;;5.74;45.13;102671.94;5031855;28;20033;-58
2023/03/01 10:14:59;;;;;;;14.60;13.00;;;;;;;5.86;46.18;102670.88;5031930;28;20120;-58
2023/03/01 10:17:31;;;;;;;13.85;12.45;;;;;;;5.96;44.46;102666.38;5031419;28;20104;-58
2023/03/01 10:20:18;;;;;;;14.25;12.85;;;;;;;5.91;44.92;102662.00;5032257;28;20028;-58
2023/03/01 10:22:50;;;;;;;14.25;12.95;;;;;;;5.86;45.03;102662.97;5024893;28;20054;-58
2023/03/01 10:25:25;;;;;;;14.10;12.75;;;;;;;6.05;44.44;102640.69;5011911;28;20054;-58
2023/03/01 10:27:59;;;;;;;14.43;12.93;;;;;;;6.31;44.64;102649.97;5012335;28;20026;-58
2023/03/01 10:30:39;;;;;;;13.02;11.73;;;;;;;6.36;44.71;102648.13;5013303;28;20026;-58
2023/03/01 10:33:23;;;;;;;12.45;10.98;;;;;;;6.34;44.41;102648.16;5029799;28;20083;-58
2023/03/01 10:35:49;;;;;;;11.48;10.35;;;;;;;6.81;43.89;102641.16;5030397;28;20049;-58
2023/03/01 10:38:16;;;;;;;11.73;10.43;;;;;;;6.95;42.78;102640.06;5031776;28;20056;-58
2023/03/01 10:40:56;;;;;;;12.43;10.93;;;;;;;7.17;43.46;102638.72;5031328;28;20519;-58
2023/03/01 10:43:29;;;;;;;12.00;10.80;;;;;;;7.24;42.60;102639.47;5018710;28;20099;-58
2023/03/01 10:45:55;;;;;;;14.18;10.40;;;;;;;7.36;41.21;102644.50;5031837;28;20104;-58
2023/03/01 10:48:26;;;;;;;11.60;9.73;;;;;;;7.59;41.82;102638.75;5031768;28;20025;-58
2023/03/01 10:51:06;;;;;;;10.88;9.57;;;;;;;7.74;41.79;102645.47;5031519;28;20072;-58
2023/03/01 10:53:42;;;;;;;10.57;9.48;;;;;;;7.85;40.65;102637.28;5029989;28;20032;-58
2023/03/01 10:56:09;;;;;;;11.07;9.50;;;;;;;8.16;40.04;102633.00;5029472;28;20033;-58
2023/03/01 10:58:40;;;;;;;9.90;8.77;;;;;;;8.53;39.64;102628.56;5031067;28;20029;-58
2023/03/01 11:01:23;;;;;;;10.65;9.32;;;;;;;8.77;38.71;102641.22;5031358;28;20025;-58
2023/03/01 11:04:07;;;;;;;9.20;8.27;;;;;;;9.02;38.21;102627.28;5031455;28;20025;-58
2023/03/01 11:06:39;;;;;;;10.75;9.10;;;;;;;9.10;37.03;102636.75;5031261;28;20100;-58
2023/03/01 11:09:18;;;;;;;11.23;10.02;;;;;;;9.28;37.85;102623.88;5029991;28;20032;-58
2023/03/01 11:11:51;;;;;;;10.50;8.98;;;;;;;9.45;36.60;102618.94;5030585;28;20527;-59
2023/03/01 11:14:21;;;;;;;10.02;8.73;;;;;;;10.01;36.88;102628.75;5029179;28;20056;-56
2023/03/01 11:17:25;;;;;;;10.43;8.88;;;;;;;10.69;37.80;102630.91;5031574;28;20036;-55
2023/03/01 11:20:02;;;;;;;10.05;9.02;;;;;;;10.85;35.49;102623.28;5019637;28;20029;-56
2023/03/01 11:22:28;;;;;;;10.68;9.50;;;;;;;11.23;33.60;102626.31;5030054;28;20507;-56
2023/03/01 11:24:55;;;;;;;12.65;9.55;;;;;;;11.39;32.81;102629.28;5030146;28;20052;-56